Cape Bruny, Australia
Current Conditions -  °F | °C
As of 10:00 PM on Friday 19 Dec 2014 (Local Time) from YMHB Reporting Station
Broken Clouds Broken Clouds  
Wind Chill: 59°   Ceiling: 7500
Heat Index: 59°   Visibility: 6mi
Dew Point: 36°   Wind: 14mph
Humidity: 42%   Direction: 300°WNW
Pressure: 29.94"   Gusts: NA
Location:  43.49°S, 147.14°E
Report Text: YMHB 191100Z 30012KT 9999 FEW050 BKN075 15/02 Q1014
Loading
Personal Weather Stations






























Interactive Weather Map New forecast layout! Learn more

10-Day Weather Forecast

Advertisements
Track Severe Weather on mobile